sensor_id;sensor_type;location;lat;lon;timestamp;pressure;altitude;pressure_sealevel;temperature;humidity
64402;BME280;50724;42.376;23.768;2023-07-22T00:01:06;93235.63;;;19.47;79.73
64402;BME280;50724;42.376;23.768;2023-07-22T00:04:06;93241.22;;;19.63;79.26
64402;BME280;50724;42.376;23.768;2023-07-22T00:07:07;93242.19;;;19.69;78.74
64402;BME280;50724;42.376;23.768;2023-07-22T00:10:07;93241.75;;;19.47;80.15
64402;BME280;50724;42.376;23.768;2023-07-22T00:13:08;93239.59;;;19.62;79.56
64402;BME280;50724;42.376;23.768;2023-07-22T00:16:08;93238.22;;;19.53;80.45
64402;BME280;50724;42.376;23.768;2023-07-22T00:19:09;93233.91;;;19.59;79.84
64402;BME280;50724;42.376;23.768;2023-07-22T00:22:09;93241.69;;;19.54;80.28
64402;BME280;50724;42.376;23.768;2023-07-22T00:25:11;93248.72;;;19.42;80.88
64402;BME280;50724;42.376;23.768;2023-07-22T00:28:11;93245.59;;;19.51;80.93
64402;BME280;50724;42.376;23.768;2023-07-22T00:31:12;93242.34;;;19.49;81.19
64402;BME280;50724;42.376;23.768;2023-07-22T00:34:21;93250.53;;;19.48;81.42
64402;BME280;50724;42.376;23.768;2023-07-22T00:37:23;93243.75;;;19.52;81.18
64402;BME280;50724;42.376;23.768;2023-07-22T00:40:24;93248.41;;;19.56;80.73
64402;BME280;50724;42.376;23.768;2023-07-22T00:43:24;93248.69;;;19.48;81.41
64402;BME280;50724;42.376;23.768;2023-07-22T00:46:26;93247.91;;;19.41;81.90
64402;BME280;50724;42.376;23.768;2023-07-22T00:49:27;93260.94;;;19.49;81.78
64402;BME280;50724;42.376;23.768;2023-07-22T00:52:28;93247.91;;;19.41;82.17
64402;BME280;50724;42.376;23.768;2023-07-22T00:55:29;93257.78;;;19.28;82.87
64402;BME280;50724;42.376;23.768;2023-07-22T00:58:30;93258.38;;;19.30;82.78
64402;BME280;50724;42.376;23.768;2023-07-22T01:01:31;93255.28;;;19.39;82.84
64402;BME280;50724;42.376;23.768;2023-07-22T01:04:40;93249.13;;;19.45;82.23
64402;BME280;50724;42.376;23.768;2023-07-22T01:07:41;93257.69;;;19.09;84.44
64402;BME280;50724;42.376;23.768;2023-07-22T01:10:42;93252.81;;;19.06;85.05
64402;BME280;50724;42.376;23.768;2023-07-22T01:13:42;93262.00;;;19.04;85.29
64402;BME280;50724;42.376;23.768;2023-07-22T01:16:43;93255.28;;;19.08;85.43
64402;BME280;50724;42.376;23.768;2023-07-22T01:19:46;93252.78;;;19.13;85.20
64402;BME280;50724;42.376;23.768;2023-07-22T01:22:51;93255.81;;;19.16;85.33
64402;BME280;50724;42.376;23.768;2023-07-22T01:25:52;93249.53;;;19.11;85.77
64402;BME280;50724;42.376;23.768;2023-07-22T01:29:02;93251.94;;;19.19;85.52
64402;BME280;50724;42.376;23.768;2023-07-22T01:32:03;93256.78;;;18.91;87.02
64402;BME280;50724;42.376;23.768;2023-07-22T01:35:04;93254.97;;;18.91;87.51
64402;BME280;50724;42.376;23.768;2023-07-22T01:38:04;93268.34;;;19.03;87.36
64402;BME280;50724;42.376;23.768;2023-07-22T01:41:05;93261.78;;;19.12;86.57
64402;BME280;50724;42.376;23.768;2023-07-22T01:44:06;93252.34;;;19.16;86.40
64402;BME280;50724;42.376;23.768;2023-07-22T01:47:06;93255.28;;;19.01;87.63
64402;BME280;50724;42.376;23.768;2023-07-22T01:50:07;93237.13;;;19.05;87.61
64402;BME280;50724;42.376;23.768;2023-07-22T01:53:08;93243.28;;;18.99;87.92
64402;BME280;50724;42.376;23.768;2023-07-22T01:56:08;93233.94;;;18.96;88.39
64402;BME280;50724;42.376;23.768;2023-07-22T01:59:08;93244.94;;;18.93;88.93
64402;BME280;50724;42.376;23.768;2023-07-22T02:02:09;93245.44;;;18.77;89.91
64402;BME280;50724;42.376;23.768;2023-07-22T02:05:10;93238.66;;;18.88;89.16
64402;BME280;50724;42.376;23.768;2023-07-22T02:08:10;93238.06;;;18.86;88.53
64402;BME280;50724;42.376;23.768;2023-07-22T02:11:11;93231.34;;;18.83;89.48
64402;BME280;50724;42.376;23.768;2023-07-22T02:14:12;93249.06;;;18.83;89.52
64402;BME280;50724;42.376;23.768;2023-07-22T02:17:13;93245.38;;;18.90;89.29
64402;BME280;50724;42.376;23.768;2023-07-22T02:20:13;93238.06;;;18.86;89.06
64402;BME280;50724;42.376;23.768;2023-07-22T02:23:14;93233.22;;;18.76;89.76
64402;BME280;50724;42.376;23.768;2023-07-22T02:26:14;93224.88;;;18.73;90.45
64402;BME280;50724;42.376;23.768;2023-07-22T02:29:15;93225.06;;;18.78;90.94
64402;BME280;50724;42.376;23.768;2023-07-22T02:32:15;93228.13;;;18.75;90.33
64402;BME280;50724;42.376;23.768;2023-07-22T02:35:16;93230.69;;;18.50;91.85
64402;BME280;50724;42.376;23.768;2023-07-22T02:38:16;93231.31;;;18.45;91.43
64402;BME280;50724;42.376;23.768;2023-07-22T02:41:16;93235.16;;;18.43;91.98
64402;BME280;50724;42.376;23.768;2023-07-22T02:44:17;93235.38;;;18.41;91.86
64402;BME280;50724;42.376;23.768;2023-07-22T02:47:17;93233.13;;;18.45;92.01
64402;BME280;50724;42.376;23.768;2023-07-22T02:50:18;93243.34;;;18.35;92.15
64402;BME280;50724;42.376;23.768;2023-07-22T02:53:19;93238.25;;;18.40;93.20
64402;BME280;50724;42.376;23.768;2023-07-22T02:56:20;93235.97;;;18.43;93.73
64402;BME280;50724;42.376;23.768;2023-07-22T02:59:20;93231.28;;;18.59;92.47
64402;BME280;50724;42.376;23.768;2023-07-22T03:02:21;93229.22;;;18.61;91.82
64402;BME280;50724;42.376;23.768;2023-07-22T03:05:21;93232.97;;;18.40;92.49
64402;BME280;50724;42.376;23.768;2023-07-22T03:08:22;93235.19;;;18.36;93.13
64402;BME280;50724;42.376;23.768;2023-07-22T03:11:22;93230.91;;;18.42;93.14
64402;BME280;50724;42.376;23.768;2023-07-22T03:14:25;93237.47;;;18.33;94.10
64402;BME280;50724;42.376;23.768;2023-07-22T03:17:26;93233.16;;;18.38;94.44
64402;BME280;50724;42.376;23.768;2023-07-22T03:20:27;93236.38;;;18.53;92.83
64402;BME280;50724;42.376;23.768;2023-07-22T03:23:28;93240.06;;;18.52;92.95
64402;BME280;50724;42.376;23.768;2023-07-22T03:26:29;93243.47;;;18.66;92.65
64402;BME280;50724;42.376;23.768;2023-07-22T03:29:29;93238.22;;;18.53;92.69
64402;BME280;50724;42.376;23.768;2023-07-22T03:32:30;93250.44;;;18.41;93.38
64402;BME280;50724;42.376;23.768;2023-07-22T03:35:30;93239.81;;;18.61;92.88
64402;BME280;50724;42.376;23.768;2023-07-22T03:38:32;93241.88;;;18.59;93.11
64402;BME280;50724;42.376;23.768;2023-07-22T03:41:32;93248.13;;;18.71;92.79
64402;BME280;50724;42.376;23.768;2023-07-22T03:44:32;93249.97;;;19.08;91.30
64402;BME280;50724;42.376;23.768;2023-07-22T03:47:33;93243.28;;;19.30;90.37
64402;BME280;50724;42.376;23.768;2023-07-22T03:50:34;93245.22;;;19.48;89.27
64402;BME280;50724;42.376;23.768;2023-07-22T03:53:34;93241.47;;;19.55;88.85
64402;BME280;50724;42.376;23.768;2023-07-22T03:56:35;93241.25;;;19.81;87.49
64402;BME280;50724;42.376;23.768;2023-07-22T03:59:35;93246.06;;;19.91;87.16
64402;BME280;50724;42.376;23.768;2023-07-22T04:02:36;93231.72;;;20.17;85.82
64402;BME280;50724;42.376;23.768;2023-07-22T04:05:36;93244.09;;;20.05;86.10
64402;BME280;50724;42.376;23.768;2023-07-22T04:08:37;93235.38;;;20.22;85.32
64402;BME280;50724;42.376;23.768;2023-07-22T04:11:37;93240.75;;;20.52;84.23
64402;BME280;50724;42.376;23.768;2023-07-22T04:14:38;93237.69;;;20.85;82.47
64402;BME280;50724;42.376;23.768;2023-07-22T04:17:39;93237.13;;;21.12;81.28
64402;BME280;50724;42.376;23.768;2023-07-22T04:20:39;93242.53;;;21.36;80.47
64402;BME280;50724;42.376;23.768;2023-07-22T04:23:40;93246.53;;;21.68;79.93
64402;BME280;50724;42.376;23.768;2023-07-22T04:26:42;93245.13;;;23.09;72.34
64402;BME280;50724;42.376;23.768;2023-07-22T04:29:43;93250.28;;;24.39;67.68
64402;BME280;50724;42.376;23.768;2023-07-22T04:32:43;93261.66;;;26.44;58.87
64402;BME280;50724;42.376;23.768;2023-07-22T04:35:43;93254.22;;;28.36;51.73
64402;BME280;50724;42.376;23.768;2023-07-22T04:38:44;93259.03;;;29.53;47.12
64402;BME280;50724;42.376;23.768;2023-07-22T04:41:44;93261.25;;;30.57;44.85
64402;BME280;50724;42.376;23.768;2023-07-22T04:44:45;93271.28;;;30.57;45.22
64402;BME280;50724;42.376;23.768;2023-07-22T04:47:45;93264.91;;;32.27;40.90
64402;BME280;50724;42.376;23.768;2023-07-22T04:50:47;93271.19;;;33.19;38.38
64402;BME280;50724;42.376;23.768;2023-07-22T04:53:47;93264.44;;;34.21;36.18
64402;BME280;50724;42.376;23.768;2023-07-22T04:56:48;93278.47;;;34.72;35.09
64402;BME280;50724;42.376;23.768;2023-07-22T04:59:48;93272.47;;;33.90;37.24
64402;BME280;50724;42.376;23.768;2023-07-22T05:02:49;93276.81;;;34.27;36.23
64402;BME280;50724;42.376;23.768;2023-07-22T05:05:50;93282.09;;;34.98;35.05
64402;BME280;50724;42.376;23.768;2023-07-22T05:08:50;93285.03;;;35.33;34.60
64402;BME280;50724;42.376;23.768;2023-07-22T05:11:51;93281.50;;;35.71;33.71
64402;BME280;50724;42.376;23.768;2023-07-22T05:14:51;93278.78;;;35.71;33.19
64402;BME280;50724;42.376;23.768;2023-07-22T05:17:52;93278.53;;;34.89;34.08
64402;BME280;50724;42.376;23.768;2023-07-22T05:20:52;93282.47;;;32.94;36.19
64402;BME280;50724;42.376;23.768;2023-07-22T05:23:52;93270.47;;;32.68;38.10
64402;BME280;50724;42.376;23.768;2023-07-22T05:26:53;93280.38;;;31.42;41.19
64402;BME280;50724;42.376;23.768;2023-07-22T05:29:54;93275.94;;;30.13;44.45
64402;BME280;50724;42.376;23.768;2023-07-22T05:32:54;93276.69;;;29.84;44.79
64402;BME280;50724;42.376;23.768;2023-07-22T05:35:55;93281.00;;;29.16;47.25
64402;BME280;50724;42.376;23.768;2023-07-22T05:38:55;93273.00;;;28.56;49.30
64402;BME280;50724;42.376;23.768;2023-07-22T05:41:55;93266.81;;;27.75;52.55
64402;BME280;50724;42.376;23.768;2023-07-22T05:44:57;93274.06;;;27.84;51.69
64402;BME280;50724;42.376;23.768;2023-07-22T05:47:57;93275.78;;;27.23;54.04
64402;BME280;50724;42.376;23.768;2023-07-22T05:50:58;93280.03;;;26.68;57.38
64402;BME280;50724;42.376;23.768;2023-07-22T05:53:58;93278.72;;;27.27;55.99
64402;BME280;50724;42.376;23.768;2023-07-22T05:56:59;93282.25;;;27.33;55.98
64402;BME280;50724;42.376;23.768;2023-07-22T05:59:59;93278.72;;;27.27;54.99
64402;BME280;50724;42.376;23.768;2023-07-22T06:03:00;93279.75;;;27.16;56.79
64402;BME280;50724;42.376;23.768;2023-07-22T06:06:00;93276.41;;;27.51;55.90
64402;BME280;50724;42.376;23.768;2023-07-22T06:09:01;93276.47;;;27.81;54.72
64402;BME280;50724;42.376;23.768;2023-07-22T06:12:02;93273.31;;;28.09;54.00
64402;BME280;50724;42.376;23.768;2023-07-22T06:15:02;93270.06;;;27.92;54.70
64402;BME280;50724;42.376;23.768;2023-07-22T06:18:03;93274.56;;;27.61;54.48
64402;BME280;50724;42.376;23.768;2023-07-22T06:21:07;93283.59;;;27.35;55.69
64402;BME280;50724;42.376;23.768;2023-07-22T06:24:08;93286.06;;;27.42;56.56
64402;BME280;50724;42.376;23.768;2023-07-22T06:27:08;93288.03;;;27.76;54.73
64402;BME280;50724;42.376;23.768;2023-07-22T06:30:09;93287.75;;;27.68;54.36
64402;BME280;50724;42.376;23.768;2023-07-22T06:33:09;93293.50;;;27.29;55.55
64402;BME280;50724;42.376;23.768;2023-07-22T06:36:19;93292.53;;;27.41;57.20
64402;BME280;50724;42.376;23.768;2023-07-22T06:39:19;93293.25;;;27.36;55.62
64402;BME280;50724;42.376;23.768;2023-07-22T06:42:20;93280.53;;;27.73;55.65
64402;BME280;50724;42.376;23.768;2023-07-22T06:45:20;93282.44;;;28.18;53.83
64402;BME280;50724;42.376;23.768;2023-07-22T06:48:21;93289.19;;;28.41;52.89
64402;BME280;50724;42.376;23.768;2023-07-22T06:51:21;93291.84;;;28.51;51.72
64402;BME280;50724;42.376;23.768;2023-07-22T06:54:21;93290.25;;;28.50;51.55
64402;BME280;50724;42.376;23.768;2023-07-22T06:57:32;93296.44;;;28.86;50.64
64402;BME280;50724;42.376;23.768;2023-07-22T07:00:33;93295.66;;;28.20;51.96
64402;BME280;50724;42.376;23.768;2023-07-22T07:03:33;93302.66;;;28.61;51.46
64402;BME280;50724;42.376;23.768;2023-07-22T07:06:34;93305.59;;;28.80;51.66
64402;BME280;50724;42.376;23.768;2023-07-22T07:09:35;93311.44;;;29.22;50.52
64402;BME280;50724;42.376;23.768;2023-07-22T07:12:38;93308.22;;;29.10;50.61
64402;BME280;50724;42.376;23.768;2023-07-22T07:15:38;93304.44;;;29.16;50.09
64402;BME280;50724;42.376;23.768;2023-07-22T07:18:39;93300.66;;;29.27;50.38
64402;BME280;50724;42.376;23.768;2023-07-22T07:21:40;93305.78;;;29.23;51.68
64402;BME280;50724;42.376;23.768;2023-07-22T07:24:40;93307.06;;;29.41;50.19
64402;BME280;50724;42.376;23.768;2023-07-22T07:27:41;93296.88;;;29.28;49.34
64402;BME280;50724;42.376;23.768;2023-07-22T07:30:41;93303.41;;;28.87;51.62
64402;BME280;50724;42.376;23.768;2023-07-22T07:33:42;93302.13;;;29.58;49.98
64402;BME280;50724;42.376;23.768;2023-07-22T07:36:43;93299.34;;;29.73;49.55
64402;BME280;50724;42.376;23.768;2023-07-22T07:39:43;93293.53;;;29.56;51.38
64402;BME280;50724;42.376;23.768;2023-07-22T07:42:43;93293.44;;;29.66;51.70
64402;BME280;50724;42.376;23.768;2023-07-22T07:45:44;93285.97;;;30.07;49.93
64402;BME280;50724;42.376;23.768;2023-07-22T07:48:49;93291.47;;;29.87;49.63
64402;BME280;50724;42.376;23.768;2023-07-22T07:51:49;93295.84;;;29.78;50.86
64402;BME280;50724;42.376;23.768;2023-07-22T07:54:50;93294.09;;;30.02;49.17
64402;BME280;50724;42.376;23.768;2023-07-22T07:57:51;93289.72;;;30.06;49.07
64402;BME280;50724;42.376;23.768;2023-07-22T08:00:51;93294.69;;;30.28;49.54
64402;BME280;50724;42.376;23.768;2023-07-22T08:03:51;93293.41;;;29.81;49.72
64402;BME280;50724;42.376;23.768;2023-07-22T08:06:52;93287.88;;;29.53;51.27
64402;BME280;50724;42.376;23.768;2023-07-22T08:09:52;93290.06;;;29.94;49.91
64402;BME280;50724;42.376;23.768;2023-07-22T08:12:53;93287.50;;;30.18;48.87
64402;BME280;50724;42.376;23.768;2023-07-22T08:15:53;93289.22;;;30.72;48.70
64402;BME280;50724;42.376;23.768;2023-07-22T08:18:54;93295.31;;;30.87;48.61
64402;BME280;50724;42.376;23.768;2023-07-22T08:21:54;93298.06;;;31.11;47.33
64402;BME280;50724;42.376;23.768;2023-07-22T08:24:54;93292.88;;;30.86;45.95
64402;BME280;50724;42.376;23.768;2023-07-22T08:27:55;93288.50;;;30.95;46.14
64402;BME280;50724;42.376;23.768;2023-07-22T08:30:55;93293.13;;;31.18;46.16
64402;BME280;50724;42.376;23.768;2023-07-22T08:33:56;93288.44;;;31.00;47.01
64402;BME280;50724;42.376;23.768;2023-07-22T08:36:57;93293.50;;;31.54;45.01
64402;BME280;50724;42.376;23.768;2023-07-22T08:39:57;93295.19;;;31.50;44.24
64402;BME280;50724;42.376;23.768;2023-07-22T08:42:58;93295.16;;;31.26;44.39
64402;BME280;50724;42.376;23.768;2023-07-22T08:46:00;93289.13;;;30.82;45.70
64402;BME280;50724;42.376;23.768;2023-07-22T08:49:03;93286.19;;;31.31;44.67
64402;BME280;50724;42.376;23.768;2023-07-22T08:52:06;93278.44;;;31.48;45.15
64402;BME280;50724;42.376;23.768;2023-07-22T08:55:07;93275.47;;;31.86;43.51
64402;BME280;50724;42.376;23.768;2023-07-22T08:58:11;93266.88;;;32.22;43.37
64402;BME280;50724;42.376;23.768;2023-07-22T09:01:11;93265.69;;;31.72;43.80
64402;BME280;50724;42.376;23.768;2023-07-22T09:04:12;93272.28;;;32.03;42.20
64402;BME280;50724;42.376;23.768;2023-07-22T09:07:14;93265.91;;;31.94;43.09
64402;BME280;50724;42.376;23.768;2023-07-22T09:10:15;93260.22;;;31.35;42.47
64402;BME280;50724;42.376;23.768;2023-07-22T09:13:18;93261.97;;;31.44;45.04
64402;BME280;50724;42.376;23.768;2023-07-22T09:16:19;93263.88;;;31.86;42.26
64402;BME280;50724;42.376;23.768;2023-07-22T09:19:20;93254.94;;;31.67;42.08
64402;BME280;50724;42.376;23.768;2023-07-22T09:22:25;93248.22;;;32.20;40.91
64402;BME280;50724;42.376;23.768;2023-07-22T09:25:28;93238.00;;;32.31;40.32
64402;BME280;50724;42.376;23.768;2023-07-22T09:28:47;93234.38;;;32.86;38.96
64402;BME280;50724;42.376;23.768;2023-07-22T09:31:53;93235.72;;;32.38;40.48
64402;BME280;50724;42.376;23.768;2023-07-22T09:34:54;93231.28;;;32.47;39.86
64402;BME280;50724;42.376;23.768;2023-07-22T09:37:56;93221.22;;;32.47;40.26
64402;BME280;50724;42.376;23.768;2023-07-22T09:40:56;93230.25;;;32.75;40.53
64402;BME280;50724;42.376;23.768;2023-07-22T09:43:57;93228.44;;;32.71;38.97
64402;BME280;50724;42.376;23.768;2023-07-22T09:46:57;93221.56;;;33.33;38.99
64402;BME280;50724;42.376;23.768;2023-07-22T09:49:57;93226.38;;;33.63;38.38
64402;BME280;50724;42.376;23.768;2023-07-22T09:52:59;93212.38;;;33.83;37.12
64402;BME280;50724;42.376;23.768;2023-07-22T09:56:04;93207.72;;;33.83;37.29
64402;BME280;50724;42.376;23.768;2023-07-22T09:59:05;93202.88;;;33.94;36.42
64402;BME280;50724;42.376;23.768;2023-07-22T10:02:11;93199.50;;;34.11;37.07
64402;BME280;50724;42.376;23.768;2023-07-22T10:05:16;93206.91;;;34.19;35.05
64402;BME280;50724;42.376;23.768;2023-07-22T10:08:18;93201.06;;;34.03;37.75
64402;BME280;50724;42.376;23.768;2023-07-22T10:11:19;93195.84;;;34.37;36.01
64402;BME280;50724;42.376;23.768;2023-07-22T10:14:20;93201.91;;;34.56;34.28
64402;BME280;50724;42.376;23.768;2023-07-22T10:17:21;93191.66;;;34.31;35.46
64402;BME280;50724;42.376;23.768;2023-07-22T10:20:23;93187.53;;;34.87;34.73
64402;BME280;50724;42.376;23.768;2023-07-22T10:23:25;93191.47;;;34.50;35.46
64402;BME280;50724;42.376;23.768;2023-07-22T10:26:26;93182.91;;;34.56;34.97
64402;BME280;50724;42.376;23.768;2023-07-22T10:29:28;93182.28;;;34.90;34.33
64402;BME280;50724;42.376;23.768;2023-07-22T10:32:33;93184.44;;;34.80;33.87
64402;BME280;50724;42.376;23.768;2023-07-22T10:38:35;93186.63;;;35.00;33.09
64402;BME280;50724;42.376;23.768;2023-07-22T10:41:38;93180.50;;;34.86;34.43
64402;BME280;50724;42.376;23.768;2023-07-22T10:44:39;93184.63;;;34.83;33.52
64402;BME280;50724;42.376;23.768;2023-07-22T10:47:47;93181.25;;;35.17;32.60
64402;BME280;50724;42.376;23.768;2023-07-22T10:51:14;93176.50;;;35.22;34.27
64402;BME280;50724;42.376;23.768;2023-07-22T10:54:31;93177.38;;;35.57;32.81
64402;BME280;50724;42.376;23.768;2023-07-22T10:57:47;93175.81;;;35.73;31.77
64402;BME280;50724;42.376;23.768;2023-07-22T11:00:48;93171.31;;;35.12;25.93
64402;BME280;50724;42.376;23.768;2023-07-22T11:07:07;93164.41;;;34.67;27.70
64402;BME280;50724;42.376;23.768;2023-07-22T11:10:18;93169.69;;;34.41;26.92
64402;BME280;50724;42.376;23.768;2023-07-22T11:13:27;93171.97;;;34.48;26.98
64402;BME280;50724;42.376;23.768;2023-07-22T11:16:30;93178.41;;;34.91;25.99
64402;BME280;50724;42.376;23.768;2023-07-22T11:19:32;93172.00;;;34.87;26.74
64402;BME280;50724;42.376;23.768;2023-07-22T11:22:33;93166.53;;;35.09;26.85
64402;BME280;50724;42.376;23.768;2023-07-22T11:25:34;93167.38;;;34.88;27.47
64402;BME280;50724;42.376;23.768;2023-07-22T11:28:34;93159.59;;;34.64;26.96
64402;BME280;50724;42.376;23.768;2023-07-22T11:31:41;93165.94;;;34.82;25.83
64402;BME280;50724;42.376;23.768;2023-07-22T11:34:42;93163.88;;;34.96;26.03
64402;BME280;50724;42.376;23.768;2023-07-22T11:37:46;93163.34;;;34.77;25.31
64402;BME280;50724;42.376;23.768;2023-07-22T11:40:46;93168.38;;;34.61;26.60
64402;BME280;50724;42.376;23.768;2023-07-22T11:43:47;93159.72;;;34.59;27.13
64402;BME280;50724;42.376;23.768;2023-07-22T11:47:03;93149.22;;;34.66;27.05
64402;BME280;50724;42.376;23.768;2023-07-22T11:50:04;93149.25;;;34.44;26.54
64402;BME280;50724;42.376;23.768;2023-07-22T11:53:04;93126.63;;;34.35;27.18
64402;BME280;50724;42.376;23.768;2023-07-22T11:56:05;93149.22;;;34.66;28.19
64402;BME280;50724;42.376;23.768;2023-07-22T11:59:05;93144.00;;;34.87;27.09
64402;BME280;50724;42.376;23.768;2023-07-22T12:02:06;93153.41;;;34.72;26.97
64402;BME280;50724;42.376;23.768;2023-07-22T12:05:06;93156.72;;;35.00;26.97
64402;BME280;50724;42.376;23.768;2023-07-22T12:08:07;93149.75;;;34.77;27.13
64402;BME280;50724;42.376;23.768;2023-07-22T12:11:22;93145.50;;;35.01;26.69
64402;BME280;50724;42.376;23.768;2023-07-22T12:14:23;93135.34;;;35.24;27.40
64402;BME280;50724;42.376;23.768;2023-07-22T12:17:23;93118.88;;;35.20;27.17
64402;BME280;50724;42.376;23.768;2023-07-22T12:20:29;93127.88;;;35.47;26.81
64402;BME280;50724;42.376;23.768;2023-07-22T12:23:29;93128.25;;;35.62;27.02
64402;BME280;50724;42.376;23.768;2023-07-22T12:26:31;93126.16;;;35.51;26.06
64402;BME280;50724;42.376;23.768;2023-07-22T12:29:32;93112.88;;;35.66;26.94
64402;BME280;50724;42.376;23.768;2023-07-22T12:32:33;93115.41;;;35.97;26.04
64402;BME280;50724;42.376;23.768;2023-07-22T12:35:42;93116.06;;;35.85;26.65
64402;BME280;50724;42.376;23.768;2023-07-22T12:38:52;93113.50;;;35.72;26.72
64402;BME280;50724;42.376;23.768;2023-07-22T12:41:52;93096.84;;;35.73;26.37
64402;BME280;50724;42.376;23.768;2023-07-22T12:44:53;93111.91;;;35.71;25.22
64402;BME280;50724;42.376;23.768;2023-07-22T12:47:53;93109.19;;;35.62;25.75
64402;BME280;50724;42.376;23.768;2023-07-22T12:50:54;93105.84;;;35.65;25.71
64402;BME280;50724;42.376;23.768;2023-07-22T12:54:03;93104.06;;;34.96;25.83
64402;BME280;50724;42.376;23.768;2023-07-22T12:57:04;93101.72;;;34.64;26.97
64402;BME280;50724;42.376;23.768;2023-07-22T13:00:05;93102.16;;;35.70;25.19
64402;BME280;50724;42.376;23.768;2023-07-22T13:03:18;93096.03;;;35.47;25.69
64402;BME280;50724;42.376;23.768;2023-07-22T13:06:19;93099.22;;;35.41;24.75
64402;BME280;50724;42.376;23.768;2023-07-22T13:09:19;93094.75;;;35.45;25.38
64402;BME280;50724;42.376;23.768;2023-07-22T13:12:23;93095.06;;;35.35;25.28
64402;BME280;50724;42.376;23.768;2023-07-22T13:15:23;93074.75;;;35.75;25.53
64402;BME280;50724;42.376;23.768;2023-07-22T13:18:23;93075.81;;;36.25;24.81
64402;BME280;50724;42.376;23.768;2023-07-22T13:21:24;93084.38;;;35.55;25.40
64402;BME280;50724;42.376;23.768;2023-07-22T13:24:24;93086.59;;;35.87;25.16
64402;BME280;50724;42.376;23.768;2023-07-22T13:27:25;93074.41;;;35.85;24.79
64402;BME280;50724;42.376;23.768;2023-07-22T13:30:25;93071.69;;;35.85;25.14
64402;BME280;50724;42.376;23.768;2023-07-22T13:33:26;93070.75;;;35.81;25.77
64402;BME280;50724;42.376;23.768;2023-07-22T13:36:26;93067.88;;;35.69;24.72
64402;BME280;50724;42.376;23.768;2023-07-22T13:39:26;93066.75;;;35.87;23.75
64402;BME280;50724;42.376;23.768;2023-07-22T13:42:27;93067.69;;;35.91;24.65
64402;BME280;50724;42.376;23.768;2023-07-22T13:45:27;93067.06;;;35.77;24.83
64402;BME280;50724;42.376;23.768;2023-07-22T13:48:28;93061.00;;;35.54;25.38
64402;BME280;50724;42.376;23.768;2023-07-22T13:51:28;93063.06;;;35.83;25.07
64402;BME280;50724;42.376;23.768;2023-07-22T13:54:28;93062.09;;;35.79;24.31
64402;BME280;50724;42.376;23.768;2023-07-22T13:57:29;93052.97;;;35.66;24.60
64402;BME280;50724;42.376;23.768;2023-07-22T14:00:29;93037.31;;;35.63;24.31
64402;BME280;50724;42.376;23.768;2023-07-22T14:03:30;93052.03;;;35.54;24.68
64402;BME280;50724;42.376;23.768;2023-07-22T14:06:30;93039.19;;;35.37;24.88
64402;BME280;50724;42.376;23.768;2023-07-22T14:09:32;93035.53;;;35.50;25.59
64402;BME280;50724;42.376;23.768;2023-07-22T14:12:32;93040.16;;;35.41;25.56
64402;BME280;50724;42.376;23.768;2023-07-22T14:15:33;93043.38;;;35.60;25.17
64402;BME280;50724;42.376;23.768;2023-07-22T14:18:33;93029.13;;;35.72;24.62
64402;BME280;50724;42.376;23.768;2023-07-22T14:21:34;93027.66;;;35.06;25.33
64402;BME280;50724;42.376;23.768;2023-07-22T14:24:34;93031.31;;;35.01;25.47
64402;BME280;50724;42.376;23.768;2023-07-22T14:27:34;93019.34;;;35.37;25.73
64402;BME280;50724;42.376;23.768;2023-07-22T14:30:35;93030.56;;;35.69;26.22
64402;BME280;50724;42.376;23.768;2023-07-22T14:33:35;93036.63;;;35.83;24.75
64402;BME280;50724;42.376;23.768;2023-07-22T14:36:36;93035.53;;;35.42;25.13
64402;BME280;50724;42.376;23.768;2023-07-22T14:39:36;93033.75;;;35.37;25.02
64402;BME280;50724;42.376;23.768;2023-07-22T14:42:36;93042.09;;;35.49;24.62
64402;BME280;50724;42.376;23.768;2023-07-22T14:45:37;93032.31;;;35.40;24.43
64402;BME280;50724;42.376;23.768;2023-07-22T14:48:37;93043.03;;;35.28;25.08
64402;BME280;50724;42.376;23.768;2023-07-22T14:51:38;93054.25;;;35.77;24.63
64402;BME280;50724;42.376;23.768;2023-07-22T14:54:38;93048.03;;;35.51;25.55
64402;BME280;50724;42.376;23.768;2023-07-22T14:57:38;93052.28;;;34.53;26.98
64402;BME280;50724;42.376;23.768;2023-07-22T15:00:39;93048.03;;;34.30;27.48
64402;BME280;50724;42.376;23.768;2023-07-22T15:03:39;93051.09;;;33.84;28.38
64402;BME280;50724;42.376;23.768;2023-07-22T15:06:40;93046.59;;;33.79;27.94
64402;BME280;50724;42.376;23.768;2023-07-22T15:09:40;93045.03;;;33.65;28.87
64402;BME280;50724;42.376;23.768;2023-07-22T15:12:41;93045.50;;;34.42;27.90
64402;BME280;50724;42.376;23.768;2023-07-22T15:15:41;93042.72;;;35.72;26.54
64402;BME280;50724;42.376;23.768;2023-07-22T15:18:41;93048.47;;;35.28;26.62
64402;BME280;50724;42.376;23.768;2023-07-22T15:21:42;93048.81;;;35.69;26.27
64402;BME280;50724;42.376;23.768;2023-07-22T15:24:43;93041.88;;;36.61;24.83
64402;BME280;50724;42.376;23.768;2023-07-22T15:27:43;93048.53;;;37.09;24.37
64402;BME280;50724;42.376;23.768;2023-07-22T15:30:44;93056.50;;;36.94;24.39
64402;BME280;50724;42.376;23.768;2023-07-22T15:33:44;93054.88;;;36.64;25.11
64402;BME280;50724;42.376;23.768;2023-07-22T15:36:45;93057.25;;;36.65;25.49
64402;BME280;50724;42.376;23.768;2023-07-22T15:39:45;93054.03;;;35.05;27.80
64402;BME280;50724;42.376;23.768;2023-07-22T15:42:46;93048.31;;;34.28;28.48
64402;BME280;50724;42.376;23.768;2023-07-22T15:45:46;93045.28;;;33.77;28.84
64402;BME280;50724;42.376;23.768;2023-07-22T15:48:47;93039.34;;;35.83;27.06
64402;BME280;50724;42.376;23.768;2023-07-22T15:51:47;93041.06;;;37.68;25.49
64402;BME280;50724;42.376;23.768;2023-07-22T15:54:49;93050.16;;;37.10;26.60